sensor_id;sensor_type;location;lat;lon;timestamp;temperature;humidity
2497;DHT22;1259;48.306;14.374;2022-09-13T00:02:12;14.70;99.90
2497;DHT22;1259;48.306;14.374;2022-09-13T00:04:38;14.70;99.90
2497;DHT22;1259;48.306;14.374;2022-09-13T00:07:05;14.60;99.90
2497;DHT22;1259;48.306;14.374;2022-09-13T00:09:32;14.60;99.90
2497;DHT22;1259;48.306;14.374;2022-09-13T00:11:59;14.60;99.90
2497;DHT22;1259;48.306;14.374;2022-09-13T00:14:26;14.60;99.90
2497;DHT22;1259;48.306;14.374;2022-09-13T00:16:54;14.50;99.90
2497;DHT22;1259;48.306;14.374;2022-09-13T00:19:21;14.60;99.90
2497;DHT22;1259;48.306;14.374;2022-09-13T00:21:48;14.60;99.90
2497;DHT22;1259;48.306;14.374;2022-09-13T00:24:15;14.60;99.90
2497;DHT22;1259;48.306;14.374;2022-09-13T00:26:42;14.60;99.90
2497;DHT22;1259;48.306;14.374;2022-09-13T00:29:10;14.60;99.90
2497;DHT22;1259;48.306;14.374;2022-09-13T00:31:37;14.60;99.90
2497;DHT22;1259;48.306;14.374;2022-09-13T00:34:05;14.60;99.90
2497;DHT22;1259;48.306;14.374;2022-09-13T00:36:32;14.50;99.90
2497;DHT22;1259;48.306;14.374;2022-09-13T00:38:59;14.50;99.90
2497;DHT22;1259;48.306;14.374;2022-09-13T00:41:26;14.50;99.90
2497;DHT22;1259;48.306;14.374;2022-09-13T00:43:55;14.60;99.90
2497;DHT22;1259;48.306;14.374;2022-09-13T00:46:27;14.50;99.90
2497;DHT22;1259;48.306;14.374;2022-09-13T00:48:58;14.50;99.90
2497;DHT22;1259;48.306;14.374;2022-09-13T00:51:28;14.50;99.90
2497;DHT22;1259;48.306;14.374;2022-09-13T00:53:56;14.50;99.90
2497;DHT22;1259;48.306;14.374;2022-09-13T00:56:29;14.50;99.90
2497;DHT22;1259;48.306;14.374;2022-09-13T00:59:00;14.40;99.90
2497;DHT22;1259;48.306;14.374;2022-09-13T01:01:34;14.40;99.90
2497;DHT22;1259;48.306;14.374;2022-09-13T01:04:02;14.50;99.90
2497;DHT22;1259;48.306;14.374;2022-09-13T01:06:32;14.50;99.90
2497;DHT22;1259;48.306;14.374;2022-09-13T01:09:01;14.40;99.90
2497;DHT22;1259;48.306;14.374;2022-09-13T01:11:37;14.30;99.90
2497;DHT22;1259;48.306;14.374;2022-09-13T01:14:07;14.20;99.90
2497;DHT22;1259;48.306;14.374;2022-09-13T01:16:35;14.30;99.90
2497;DHT22;1259;48.306;14.374;2022-09-13T01:19:02;14.30;99.90
2497;DHT22;1259;48.306;14.374;2022-09-13T01:25:04;14.30;99.90
2497;DHT22;1259;48.306;14.374;2022-09-13T01:27:55;14.30;99.90
2497;DHT22;1259;48.306;14.374;2022-09-13T01:30:28;14.30;99.90
2497;DHT22;1259;48.306;14.374;2022-09-13T01:33:20;14.40;99.90
2497;DHT22;1259;48.306;14.374;2022-09-13T01:36:00;14.40;99.90
2497;DHT22;1259;48.306;14.374;2022-09-13T01:38:41;14.30;99.90
2497;DHT22;1259;48.306;14.374;2022-09-13T01:41:25;14.30;99.90
2497;DHT22;1259;48.306;14.374;2022-09-13T01:43:57;14.30;99.90
2497;DHT22;1259;48.306;14.374;2022-09-13T01:46:33;14.30;99.90
2497;DHT22;1259;48.306;14.374;2022-09-13T01:49:11;14.30;99.90
2497;DHT22;1259;48.306;14.374;2022-09-13T01:51:44;14.40;99.90
2497;DHT22;1259;48.306;14.374;2022-09-13T01:54:18;14.40;99.90
2497;DHT22;1259;48.306;14.374;2022-09-13T01:56:53;14.40;99.90
2497;DHT22;1259;48.306;14.374;2022-09-13T01:59:26;14.40;99.90
2497;DHT22;1259;48.306;14.374;2022-09-13T02:02:00;14.50;99.90
2497;DHT22;1259;48.306;14.374;2022-09-13T02:04:34;14.30;99.90
2497;DHT22;1259;48.306;14.374;2022-09-13T02:07:07;14.40;99.90
2497;DHT22;1259;48.306;14.374;2022-09-13T02:09:37;14.30;99.90
2497;DHT22;1259;48.306;14.374;2022-09-13T02:12:10;14.30;99.90
2497;DHT22;1259;48.306;14.374;2022-09-13T02:14:43;14.20;99.90
2497;DHT22;1259;48.306;14.374;2022-09-13T02:17:15;14.20;99.90
2497;DHT22;1259;48.306;14.374;2022-09-13T02:19:47;14.20;99.90
2497;DHT22;1259;48.306;14.374;2022-09-13T02:22:19;14.10;99.90
2497;DHT22;1259;48.306;14.374;2022-09-13T02:24:52;14.10;99.90
2497;DHT22;1259;48.306;14.374;2022-09-13T02:27:23;14.10;99.90
2497;DHT22;1259;48.306;14.374;2022-09-13T02:29:54;14.10;99.90
2497;DHT22;1259;48.306;14.374;2022-09-13T02:32:25;14.00;99.90
2497;DHT22;1259;48.306;14.374;2022-09-13T02:34:58;14.00;99.90
2497;DHT22;1259;48.306;14.374;2022-09-13T02:37:29;14.00;99.90
2497;DHT22;1259;48.306;14.374;2022-09-13T02:39:59;14.00;99.90
2497;DHT22;1259;48.306;14.374;2022-09-13T02:42:31;13.90;99.90
2497;DHT22;1259;48.306;14.374;2022-09-13T02:45:01;13.90;99.90
2497;DHT22;1259;48.306;14.374;2022-09-13T02:47:41;13.80;99.90
2497;DHT22;1259;48.306;14.374;2022-09-13T02:50:22;13.70;99.90
2497;DHT22;1259;48.306;14.374;2022-09-13T02:53:01;13.90;99.90
2497;DHT22;1259;48.306;14.374;2022-09-13T02:55:37;13.90;99.90
2497;DHT22;1259;48.306;14.374;2022-09-13T02:58:09;13.90;99.90
2497;DHT22;1259;48.306;14.374;2022-09-13T03:00:37;13.80;99.90
2497;DHT22;1259;48.306;14.374;2022-09-13T03:03:09;13.80;99.90
2497;DHT22;1259;48.306;14.374;2022-09-13T03:05:37;13.70;99.90
2497;DHT22;1259;48.306;14.374;2022-09-13T03:08:05;13.70;99.90
2497;DHT22;1259;48.306;14.374;2022-09-13T03:10:43;13.60;99.90
2497;DHT22;1259;48.306;14.374;2022-09-13T03:13:33;13.50;99.90
2497;DHT22;1259;48.306;14.374;2022-09-13T03:16:09;13.50;99.90
2497;DHT22;1259;48.306;14.374;2022-09-13T03:18:50;13.40;99.90
2497;DHT22;1259;48.306;14.374;2022-09-13T03:21:33;13.50;99.90
2497;DHT22;1259;48.306;14.374;2022-09-13T03:24:11;13.60;99.90
2497;DHT22;1259;48.306;14.374;2022-09-13T03:26:45;13.50;99.90
2497;DHT22;1259;48.306;14.374;2022-09-13T03:29:24;13.60;99.90
2497;DHT22;1259;48.306;14.374;2022-09-13T03:32:04;13.60;99.90
2497;DHT22;1259;48.306;14.374;2022-09-13T03:34:41;13.60;99.90
2497;DHT22;1259;48.306;14.374;2022-09-13T03:37:15;13.50;99.90
2497;DHT22;1259;48.306;14.374;2022-09-13T03:39:46;13.50;99.90
2497;DHT22;1259;48.306;14.374;2022-09-13T03:42:19;13.50;99.90
2497;DHT22;1259;48.306;14.374;2022-09-13T03:44:50;13.40;99.90
2497;DHT22;1259;48.306;14.374;2022-09-13T03:47:19;13.40;99.90
2497;DHT22;1259;48.306;14.374;2022-09-13T03:49:49;13.30;99.90
2497;DHT22;1259;48.306;14.374;2022-09-13T03:52:17;13.30;99.90
2497;DHT22;1259;48.306;14.374;2022-09-13T03:54:45;13.30;99.90
2497;DHT22;1259;48.306;14.374;2022-09-13T03:57:13;13.40;99.90
2497;DHT22;1259;48.306;14.374;2022-09-13T03:59:44;13.30;99.90
2497;DHT22;1259;48.306;14.374;2022-09-13T04:02:12;13.20;99.90
2497;DHT22;1259;48.306;14.374;2022-09-13T04:04:39;13.00;99.90
2497;DHT22;1259;48.306;14.374;2022-09-13T04:07:10;13.10;99.90
2497;DHT22;1259;48.306;14.374;2022-09-13T04:09:37;13.20;99.90
2497;DHT22;1259;48.306;14.374;2022-09-13T04:12:05;13.10;99.90
2497;DHT22;1259;48.306;14.374;2022-09-13T04:14:34;13.20;99.90
2497;DHT22;1259;48.306;14.374;2022-09-13T04:17:01;13.20;99.90
2497;DHT22;1259;48.306;14.374;2022-09-13T04:19:28;13.20;99.90
2497;DHT22;1259;48.306;14.374;2022-09-13T04:21:56;13.20;99.90
2497;DHT22;1259;48.306;14.374;2022-09-13T04:24:26;13.30;99.90
2497;DHT22;1259;48.306;14.374;2022-09-13T04:26:54;13.20;99.90
2497;DHT22;1259;48.306;14.374;2022-09-13T04:29:22;13.20;99.90
2497;DHT22;1259;48.306;14.374;2022-09-13T04:31:51;13.20;99.90
2497;DHT22;1259;48.306;14.374;2022-09-13T04:34:19;13.30;99.90
2497;DHT22;1259;48.306;14.374;2022-09-13T04:36:48;13.20;99.90
2497;DHT22;1259;48.306;14.374;2022-09-13T04:39:15;13.20;99.90
2497;DHT22;1259;48.306;14.374;2022-09-13T04:41:45;13.10;99.90
2497;DHT22;1259;48.306;14.374;2022-09-13T04:44:13;13.10;99.90
2497;DHT22;1259;48.306;14.374;2022-09-13T04:46:41;13.20;99.90
2497;DHT22;1259;48.306;14.374;2022-09-13T04:49:09;13.20;99.90
2497;DHT22;1259;48.306;14.374;2022-09-13T04:51:36;13.20;99.90
2497;DHT22;1259;48.306;14.374;2022-09-13T04:54:03;13.20;99.90
2497;DHT22;1259;48.306;14.374;2022-09-13T04:56:30;13.30;99.90
2497;DHT22;1259;48.306;14.374;2022-09-13T04:58:58;13.40;99.90
2497;DHT22;1259;48.306;14.374;2022-09-13T05:01:25;13.40;99.90
2497;DHT22;1259;48.306;14.374;2022-09-13T05:03:52;13.50;99.90
2497;DHT22;1259;48.306;14.374;2022-09-13T05:06:20;13.50;99.90
2497;DHT22;1259;48.306;14.374;2022-09-13T05:08:50;13.50;99.90
2497;DHT22;1259;48.306;14.374;2022-09-13T05:11:20;13.60;99.90
2497;DHT22;1259;48.306;14.374;2022-09-13T05:13:49;13.50;99.90
2497;DHT22;1259;48.306;14.374;2022-09-13T05:16:21;13.50;99.90
2497;DHT22;1259;48.306;14.374;2022-09-13T05:18:48;13.60;99.90
2497;DHT22;1259;48.306;14.374;2022-09-13T05:21:16;13.60;99.90
2497;DHT22;1259;48.306;14.374;2022-09-13T05:23:43;13.60;99.90
2497;DHT22;1259;48.306;14.374;2022-09-13T05:26:11;13.70;99.90
2497;DHT22;1259;48.306;14.374;2022-09-13T05:28:37;13.70;99.90
2497;DHT22;1259;48.306;14.374;2022-09-13T05:31:06;13.80;99.90
2497;DHT22;1259;48.306;14.374;2022-09-13T05:33:36;13.80;99.90
2497;DHT22;1259;48.306;14.374;2022-09-13T05:36:05;14.00;99.90
2497;DHT22;1259;48.306;14.374;2022-09-13T05:38:32;14.00;99.90
2497;DHT22;1259;48.306;14.374;2022-09-13T05:41:01;14.00;99.90
2497;DHT22;1259;48.306;14.374;2022-09-13T05:43:29;14.10;99.90
2497;DHT22;1259;48.306;14.374;2022-09-13T05:46:00;14.10;99.90
2497;DHT22;1259;48.306;14.374;2022-09-13T05:48:27;14.30;99.90
2497;DHT22;1259;48.306;14.374;2022-09-13T05:50:56;14.30;99.90
2497;DHT22;1259;48.306;14.374;2022-09-13T05:53:23;14.40;99.90
2497;DHT22;1259;48.306;14.374;2022-09-13T05:55:50;14.40;99.90
2497;DHT22;1259;48.306;14.374;2022-09-13T05:58:17;14.50;99.90
2497;DHT22;1259;48.306;14.374;2022-09-13T06:00:43;14.60;99.90
2497;DHT22;1259;48.306;14.374;2022-09-13T06:03:10;14.70;99.90
2497;DHT22;1259;48.306;14.374;2022-09-13T06:05:37;14.90;99.90
2497;DHT22;1259;48.306;14.374;2022-09-13T06:08:05;14.90;99.90
2497;DHT22;1259;48.306;14.374;2022-09-13T06:10:32;14.90;99.90
2497;DHT22;1259;48.306;14.374;2022-09-13T06:12:59;15.10;99.90
2497;DHT22;1259;48.306;14.374;2022-09-13T06:15:26;15.10;99.90
2497;DHT22;1259;48.306;14.374;2022-09-13T06:17:53;15.20;99.90
2497;DHT22;1259;48.306;14.374;2022-09-13T06:20:20;15.30;99.90
2497;DHT22;1259;48.306;14.374;2022-09-13T06:22:47;15.40;99.90
2497;DHT22;1259;48.306;14.374;2022-09-13T06:25:16;15.60;99.90
2497;DHT22;1259;48.306;14.374;2022-09-13T06:27:42;15.60;99.90
2497;DHT22;1259;48.306;14.374;2022-09-13T06:30:10;15.70;99.90
2497;DHT22;1259;48.306;14.374;2022-09-13T06:32:37;15.80;99.90
2497;DHT22;1259;48.306;14.374;2022-09-13T06:35:05;15.90;99.90
2497;DHT22;1259;48.306;14.374;2022-09-13T06:37:32;16.10;99.90
2497;DHT22;1259;48.306;14.374;2022-09-13T06:39:59;16.20;99.90
2497;DHT22;1259;48.306;14.374;2022-09-13T06:42:33;16.30;99.90
2497;DHT22;1259;48.306;14.374;2022-09-13T06:44:59;16.50;99.90
2497;DHT22;1259;48.306;14.374;2022-09-13T06:47:26;16.60;99.90
2497;DHT22;1259;48.306;14.374;2022-09-13T06:49:53;16.60;99.90
2497;DHT22;1259;48.306;14.374;2022-09-13T06:52:20;16.70;99.90
2497;DHT22;1259;48.306;14.374;2022-09-13T06:54:47;16.90;99.90
2497;DHT22;1259;48.306;14.374;2022-09-13T06:57:14;17.10;99.90
2497;DHT22;1259;48.306;14.374;2022-09-13T06:59:42;17.30;99.90
2497;DHT22;1259;48.306;14.374;2022-09-13T07:02:10;17.20;99.90
2497;DHT22;1259;48.306;14.374;2022-09-13T07:04:39;17.30;99.90
2497;DHT22;1259;48.306;14.374;2022-09-13T07:07:05;17.40;99.90
2497;DHT22;1259;48.306;14.374;2022-09-13T07:09:32;17.60;99.90
2497;DHT22;1259;48.306;14.374;2022-09-13T07:12:00;17.70;99.90
2497;DHT22;1259;48.306;14.374;2022-09-13T07:14:27;17.70;99.90
2497;DHT22;1259;48.306;14.374;2022-09-13T07:16:56;17.70;99.90
2497;DHT22;1259;48.306;14.374;2022-09-13T07:19:24;17.70;99.90
2497;DHT22;1259;48.306;14.374;2022-09-13T07:21:52;17.40;99.90
2497;DHT22;1259;48.306;14.374;2022-09-13T07:24:20;17.40;99.90
2497;DHT22;1259;48.306;14.374;2022-09-13T07:26:48;17.40;99.90
2497;DHT22;1259;48.306;14.374;2022-09-13T07:29:17;17.60;99.90
2497;DHT22;1259;48.306;14.374;2022-09-13T07:31:48;17.50;99.90
2497;DHT22;1259;48.306;14.374;2022-09-13T07:34:18;17.40;99.90
2497;DHT22;1259;48.306;14.374;2022-09-13T07:36:46;17.40;99.90
2497;DHT22;1259;48.306;14.374;2022-09-13T07:39:13;17.40;99.90
2497;DHT22;1259;48.306;14.374;2022-09-13T07:41:42;17.20;99.90
2497;DHT22;1259;48.306;14.374;2022-09-13T07:44:12;17.40;99.90
2497;DHT22;1259;48.306;14.374;2022-09-13T07:46:39;17.60;99.90
2497;DHT22;1259;48.306;14.374;2022-09-13T07:49:10;17.80;99.90
2497;DHT22;1259;48.306;14.374;2022-09-13T07:51:40;18.10;99.90
2497;DHT22;1259;48.306;14.374;2022-09-13T07:54:10;18.10;99.90
2497;DHT22;1259;48.306;14.374;2022-09-13T07:56:39;18.20;99.90
2497;DHT22;1259;48.306;14.374;2022-09-13T07:59:10;18.20;99.90
2497;DHT22;1259;48.306;14.374;2022-09-13T08:01:39;18.40;99.90
2497;DHT22;1259;48.306;14.374;2022-09-13T08:04:07;18.50;99.90
2497;DHT22;1259;48.306;14.374;2022-09-13T08:06:36;18.30;99.90
2497;DHT22;1259;48.306;14.374;2022-09-13T08:09:06;18.30;99.90
2497;DHT22;1259;48.306;14.374;2022-09-13T08:11:35;18.10;99.90
2497;DHT22;1259;48.306;14.374;2022-09-13T08:14:03;18.10;99.90
2497;DHT22;1259;48.306;14.374;2022-09-13T08:16:31;17.90;99.90
2497;DHT22;1259;48.306;14.374;2022-09-13T08:18:59;18.00;99.90
2497;DHT22;1259;48.306;14.374;2022-09-13T08:21:31;17.90;99.90
2497;DHT22;1259;48.306;14.374;2022-09-13T08:23:59;18.20;99.90
2497;DHT22;1259;48.306;14.374;2022-09-13T08:26:27;18.40;99.90
2497;DHT22;1259;48.306;14.374;2022-09-13T08:28:55;18.20;99.90
2497;DHT22;1259;48.306;14.374;2022-09-13T08:31:23;18.30;99.90
2497;DHT22;1259;48.306;14.374;2022-09-13T08:33:50;18.50;99.90
2497;DHT22;1259;48.306;14.374;2022-09-13T08:36:18;18.20;99.90
2497;DHT22;1259;48.306;14.374;2022-09-13T08:38:46;18.40;99.90
2497;DHT22;1259;48.306;14.374;2022-09-13T08:41:24;18.70;99.90
2497;DHT22;1259;48.306;14.374;2022-09-13T08:43:58;18.50;99.90
2497;DHT22;1259;48.306;14.374;2022-09-13T08:46:31;18.60;99.90
2497;DHT22;1259;48.306;14.374;2022-09-13T08:49:02;18.80;99.90
2497;DHT22;1259;48.306;14.374;2022-09-13T08:51:34;18.50;99.90
2497;DHT22;1259;48.306;14.374;2022-09-13T08:54:02;18.70;99.90
2497;DHT22;1259;48.306;14.374;2022-09-13T08:56:37;19.00;99.90
2497;DHT22;1259;48.306;14.374;2022-09-13T08:59:24;19.10;99.90
2497;DHT22;1259;48.306;14.374;2022-09-13T09:01:58;19.20;99.90
2497;DHT22;1259;48.306;14.374;2022-09-13T09:04:36;19.00;99.90
2497;DHT22;1259;48.306;14.374;2022-09-13T09:07:09;19.20;99.90
2497;DHT22;1259;48.306;14.374;2022-09-13T09:09:41;19.20;99.90
2497;DHT22;1259;48.306;14.374;2022-09-13T09:12:16;19.10;99.90
2497;DHT22;1259;48.306;14.374;2022-09-13T09:14:56;19.10;99.90
2497;DHT22;1259;48.306;14.374;2022-09-13T09:17:25;19.50;99.90
2497;DHT22;1259;48.306;14.374;2022-09-13T09:20:02;19.50;99.90
2497;DHT22;1259;48.306;14.374;2022-09-13T09:22:33;19.40;99.90
2497;DHT22;1259;48.306;14.374;2022-09-13T09:25:01;19.70;99.90
2497;DHT22;1259;48.306;14.374;2022-09-13T09:27:29;19.70;99.90
2497;DHT22;1259;48.306;14.374;2022-09-13T09:29:58;19.90;99.90
2497;DHT22;1259;48.306;14.374;2022-09-13T09:32:41;19.80;99.90
2497;DHT22;1259;48.306;14.374;2022-09-13T09:35:17;20.00;99.90
2497;DHT22;1259;48.306;14.374;2022-09-13T09:37:54;20.10;99.90
2497;DHT22;1259;48.306;14.374;2022-09-13T09:40:26;19.90;99.90
2497;DHT22;1259;48.306;14.374;2022-09-13T09:42:52;20.10;99.90
2497;DHT22;1259;48.306;14.374;2022-09-13T09:45:27;20.10;99.90
2497;DHT22;1259;48.306;14.374;2022-09-13T09:47:58;20.30;99.90
2497;DHT22;1259;48.306;14.374;2022-09-13T09:50:28;20.40;99.90
2497;DHT22;1259;48.306;14.374;2022-09-13T09:53:00;20.40;99.90
2497;DHT22;1259;48.306;14.374;2022-09-13T09:55:30;20.40;99.90
2497;DHT22;1259;48.306;14.374;2022-09-13T09:57:59;20.50;99.90
2497;DHT22;1259;48.306;14.374;2022-09-13T10:00:30;20.70;99.90
2497;DHT22;1259;48.306;14.374;2022-09-13T10:02:59;20.90;99.90
2497;DHT22;1259;48.306;14.374;2022-09-13T10:05:28;21.00;99.90
2497;DHT22;1259;48.306;14.374;2022-09-13T10:07:59;20.80;99.90
2497;DHT22;1259;48.306;14.374;2022-09-13T10:10:35;20.90;99.90
2497;DHT22;1259;48.306;14.374;2022-09-13T10:13:04;20.90;99.90
2497;DHT22;1259;48.306;14.374;2022-09-13T10:15:34;20.70;99.90
2497;DHT22;1259;48.306;14.374;2022-09-13T10:18:05;20.80;99.90
2497;DHT22;1259;48.306;14.374;2022-09-13T10:20:35;20.80;99.90
2497;DHT22;1259;48.306;14.374;2022-09-13T10:23:14;20.70;99.90
2497;DHT22;1259;48.306;14.374;2022-09-13T10:25:44;20.60;99.90
2497;DHT22;1259;48.306;14.374;2022-09-13T10:28:14;21.00;99.90
2497;DHT22;1259;48.306;14.374;2022-09-13T10:30:46;21.10;99.90
2497;DHT22;1259;48.306;14.374;2022-09-13T10:33:24;21.20;99.90
2497;DHT22;1259;48.306;14.374;2022-09-13T10:35:53;21.00;99.90
2497;DHT22;1259;48.306;14.374;2022-09-13T10:38:25;20.80;99.90
2497;DHT22;1259;48.306;14.374;2022-09-13T10:40:52;20.80;99.90
2497;DHT22;1259;48.306;14.374;2022-09-13T10:43:21;21.00;99.90
2497;DHT22;1259;48.306;14.374;2022-09-13T10:45:51;21.20;99.90
2497;DHT22;1259;48.306;14.374;2022-09-13T10:48:19;21.20;99.90
2497;DHT22;1259;48.306;14.374;2022-09-13T10:51:04;21.00;99.90
2497;DHT22;1259;48.306;14.374;2022-09-13T10:53:34;21.20;99.90
2497;DHT22;1259;48.306;14.374;2022-09-13T10:56:01;21.10;99.90
2497;DHT22;1259;48.306;14.374;2022-09-13T10:58:29;21.00;99.90
2497;DHT22;1259;48.306;14.374;2022-09-13T11:01:19;21.20;99.90
2497;DHT22;1259;48.306;14.374;2022-09-13T11:06:54;21.50;99.90
2497;DHT22;1259;48.306;14.374;2022-09-13T11:09:32;21.50;99.90
2497;DHT22;1259;48.306;14.374;2022-09-13T11:12:07;21.40;99.90
2497;DHT22;1259;48.306;14.374;2022-09-13T11:14:52;21.50;99.90
2497;DHT22;1259;48.306;14.374;2022-09-13T11:17:37;21.60;99.90
2497;DHT22;1259;48.306;14.374;2022-09-13T11:20:21;21.40;99.90
2497;DHT22;1259;48.306;14.374;2022-09-13T11:23:21;21.20;99.90
2497;DHT22;1259;48.306;14.374;2022-09-13T11:26:01;21.30;99.90
2497;DHT22;1259;48.306;14.374;2022-09-13T11:28:38;21.30;99.90
2497;DHT22;1259;48.306;14.374;2022-09-13T11:31:28;21.40;99.90
2497;DHT22;1259;48.306;14.374;2022-09-13T11:34:10;21.40;99.90
2497;DHT22;1259;48.306;14.374;2022-09-13T11:39:58;21.60;99.90
2497;DHT22;1259;48.306;14.374;2022-09-13T11:42:39;21.70;99.90
2497;DHT22;1259;48.306;14.374;2022-09-13T11:45:18;21.60;99.90
2497;DHT22;1259;48.306;14.374;2022-09-13T11:48:18;21.80;99.90
2497;DHT22;1259;48.306;14.374;2022-09-13T11:50:55;22.10;99.90
2497;DHT22;1259;48.306;14.374;2022-09-13T11:53:56;22.10;99.90
2497;DHT22;1259;48.306;14.374;2022-09-13T11:56:29;22.20;99.90
2497;DHT22;1259;48.306;14.374;2022-09-13T11:59:07;22.10;99.90
2497;DHT22;1259;48.306;14.374;2022-09-13T12:01:40;22.20;99.90
2497;DHT22;1259;48.306;14.374;2022-09-13T12:04:13;22.20;99.90
2497;DHT22;1259;48.306;14.374;2022-09-13T12:06:47;22.20;99.90
2497;DHT22;1259;48.306;14.374;2022-09-13T12:09:18;22.30;99.90
2497;DHT22;1259;48.306;14.374;2022-09-13T12:11:48;22.30;99.90
2497;DHT22;1259;48.306;14.374;2022-09-13T12:14:20;22.10;99.90
2497;DHT22;1259;48.306;14.374;2022-09-13T12:16:52;22.30;99.90
2497;DHT22;1259;48.306;14.374;2022-09-13T12:19:22;22.40;99.90
2497;DHT22;1259;48.306;14.374;2022-09-13T12:21:52;22.50;99.90
2497;DHT22;1259;48.306;14.374;2022-09-13T12:24:29;22.60;99.90
2497;DHT22;1259;48.306;14.374;2022-09-13T12:27:01;22.40;99.90
2497;DHT22;1259;48.306;14.374;2022-09-13T12:29:34;22.50;99.90
2497;DHT22;1259;48.306;14.374;2022-09-13T12:32:04;22.40;99.90
2497;DHT22;1259;48.306;14.374;2022-09-13T12:34:39;22.40;99.90
2497;DHT22;1259;48.306;14.374;2022-09-13T12:37:31;22.60;99.90
2497;DHT22;1259;48.306;14.374;2022-09-13T12:40:29;22.50;99.90
2497;DHT22;1259;48.306;14.374;2022-09-13T12:43:18;22.50;99.90
2497;DHT22;1259;48.306;14.374;2022-09-13T12:46:17;22.40;99.90
2497;DHT22;1259;48.306;14.374;2022-09-13T12:49:03;22.40;99.90
2497;DHT22;1259;48.306;14.374;2022-09-13T12:51:52;22.50;99.90
2497;DHT22;1259;48.306;14.374;2022-09-13T12:54:44;22.40;99.90
2497;DHT22;1259;48.306;14.374;2022-09-13T12:57:29;22.50;99.90
2497;DHT22;1259;48.306;14.374;2022-09-13T13:00:16;22.20;99.90
2497;DHT22;1259;48.306;14.374;2022-09-13T13:02:51;22.30;99.90
2497;DHT22;1259;48.306;14.374;2022-09-13T13:05:25;22.50;99.90
2497;DHT22;1259;48.306;14.374;2022-09-13T13:07:56;22.40;99.90
2497;DHT22;1259;48.306;14.374;2022-09-13T13:10:28;22.50;99.90
2497;DHT22;1259;48.306;14.374;2022-09-13T13:13:09;22.60;99.90
2497;DHT22;1259;48.306;14.374;2022-09-13T13:15:59;22.70;99.90
2497;DHT22;1259;48.306;14.374;2022-09-13T13:18:28;22.80;99.90
2497;DHT22;1259;48.306;14.374;2022-09-13T13:24:45;22.70;99.90
2497;DHT22;1259;48.306;14.374;2022-09-13T13:27:38;22.70;99.90
2497;DHT22;1259;48.306;14.374;2022-09-13T13:33:18;22.90;99.90
2497;DHT22;1259;48.306;14.374;2022-09-13T13:35:45;22.80;99.90
2497;DHT22;1259;48.306;14.374;2022-09-13T13:38:15;22.90;99.90
2497;DHT22;1259;48.306;14.374;2022-09-13T13:40:42;22.60;99.90
2497;DHT22;1259;48.306;14.374;2022-09-13T13:43:31;22.30;99.90
2497;DHT22;1259;48.306;14.374;2022-09-13T13:46:24;22.30;99.90
2497;DHT22;1259;48.306;14.374;2022-09-13T13:48:51;22.40;99.90
2497;DHT22;1259;48.306;14.374;2022-09-13T13:51:20;22.50;99.90
2497;DHT22;1259;48.306;14.374;2022-09-13T13:53:55;22.50;99.90
2497;DHT22;1259;48.306;14.374;2022-09-13T13:56:34;22.60;99.90
2497;DHT22;1259;48.306;14.374;2022-09-13T13:59:18;22.50;99.90
2497;DHT22;1259;48.306;14.374;2022-09-13T14:01:51;22.60;99.90
2497;DHT22;1259;48.306;14.374;2022-09-13T14:07:51;22.10;99.90
2497;DHT22;1259;48.306;14.374;2022-09-13T14:10:27;21.90;99.90
2497;DHT22;1259;48.306;14.374;2022-09-13T14:13:16;21.80;99.90
2497;DHT22;1259;48.306;14.374;2022-09-13T14:15:52;22.00;99.90
2497;DHT22;1259;48.306;14.374;2022-09-13T14:19:02;22.10;99.90
2497;DHT22;1259;48.306;14.374;2022-09-13T14:21:32;22.10;99.90
2497;DHT22;1259;48.306;14.374;2022-09-13T14:24:16;22.10;99.90
2497;DHT22;1259;48.306;14.374;2022-09-13T14:26:44;22.20;99.90
2497;DHT22;1259;48.306;14.374;2022-09-13T14:29:16;22.20;99.90
2497;DHT22;1259;48.306;14.374;2022-09-13T14:31:46;22.10;99.90
2497;DHT22;1259;48.306;14.374;2022-09-13T14:34:21;22.30;99.90
2497;DHT22;1259;48.306;14.374;2022-09-13T14:36:53;22.20;99.90
2497;DHT22;1259;48.306;14.374;2022-09-13T14:39:21;22.30;99.90
2497;DHT22;1259;48.306;14.374;2022-09-13T14:41:59;22.30;99.90
2497;DHT22;1259;48.306;14.374;2022-09-13T14:44:27;22.30;99.90
2497;DHT22;1259;48.306;14.374;2022-09-13T14:47:02;22.30;99.90
2497;DHT22;1259;48.306;14.374;2022-09-13T14:49:33;22.30;99.90
2497;DHT22;1259;48.306;14.374;2022-09-13T14:52:03;22.30;99.90
2497;DHT22;1259;48.306;14.374;2022-09-13T14:54:36;22.10;99.90
2497;DHT22;1259;48.306;14.374;2022-09-13T14:57:07;22.20;99.90
2497;DHT22;1259;48.306;14.374;2022-09-13T14:59:40;22.20;99.90
2497;DHT22;1259;48.306;14.374;2022-09-13T15:02:16;22.20;99.90
2497;DHT22;1259;48.306;14.374;2022-09-13T15:04:49;22.30;99.90
2497;DHT22;1259;48.306;14.374;2022-09-13T15:07:22;22.30;99.90
2497;DHT22;1259;48.306;14.374;2022-09-13T15:09:54;22.30;99.90
2497;DHT22;1259;48.306;14.374;2022-09-13T15:12:23;22.30;99.90
2497;DHT22;1259;48.306;14.374;2022-09-13T15:17:56;22.20;99.90
2497;DHT22;1259;48.306;14.374;2022-09-13T15:20:24;22.20;99.90
2497;DHT22;1259;48.306;14.374;2022-09-13T15:22:51;22.20;99.90
2497;DHT22;1259;48.306;14.374;2022-09-13T15:25:22;22.20;99.90
2497;DHT22;1259;48.306;14.374;2022-09-13T15:27:51;22.10;99.90
2497;DHT22;1259;48.306;14.374;2022-09-13T15:30:22;22.10;99.90
2497;DHT22;1259;48.306;14.374;2022-09-13T15:33:03;22.00;99.90
2497;DHT22;1259;48.306;14.374;2022-09-13T15:35:36;22.00;99.90
2497;DHT22;1259;48.306;14.374;2022-09-13T15:38:16;22.00;99.90
2497;DHT22;1259;48.306;14.374;2022-09-13T15:40:45;22.00;99.90
2497;DHT22;1259;48.306;14.374;2022-09-13T15:43:12;21.90;99.90
2497;DHT22;1259;48.306;14.374;2022-09-13T15:45:39;21.80;99.90
2497;DHT22;1259;48.306;14.374;2022-09-13T15:48:18;21.70;99.90
2497;DHT22;1259;48.306;14.374;2022-09-13T15:51:06;21.60;99.90
2497;DHT22;1259;48.306;14.374;2022-09-13T15:53:33;21.60;99.90
2497;DHT22;1259;48.306;14.374;2022-09-13T15:56:01;21.60;99.90
2497;DHT22;1259;48.306;14.374;2022-09-13T15:58:30;21.50;99.90
2497;DHT22;1259;48.306;14.374;2022-09-13T16:00:57;21.50;99.90
2497;DHT22;1259;48.306;14.374;2022-09-13T16:03:25;21.40;99.90
2497;DHT22;1259;48.306;14.374;2022-09-13T16:05:52;21.40;99.90
2497;DHT22;1259;48.306;14.374;2022-09-13T16:08:19;21.40;99.90
2497;DHT22;1259;48.306;14.374;2022-09-13T16:10:46;21.30;99.90
2497;DHT22;1259;48.306;14.374;2022-09-13T16:13:13;21.30;99.90
2497;DHT22;1259;48.306;14.374;2022-09-13T16:15:40;21.30;99.90
2497;DHT22;1259;48.306;14.374;2022-09-13T16:18:07;21.10;99.90
2497;DHT22;1259;48.306;14.374;2022-09-13T16:20:35;21.10;99.90
2497;DHT22;1259;48.306;14.374;2022-09-13T16:23:02;21.10;99.90
2497;DHT22;1259;48.306;14.374;2022-09-13T16:25:29;21.00;99.90
2497;DHT22;1259;48.306;14.374;2022-09-13T16:27:56;21.00;99.90
2497;DHT22;1259;48.306;14.374;2022-09-13T16:30:24;20.90;99.90
2497;DHT22;1259;48.306;14.374;2022-09-13T16:32:52;20.90;99.90
2497;DHT22;1259;48.306;14.374;2022-09-13T16:35:19;20.90;99.90
2497;DHT22;1259;48.306;14.374;2022-09-13T16:37:48;20.90;99.90
2497;DHT22;1259;48.306;14.374;2022-09-13T16:40:17;20.90;99.90